Time;durP1;ratioP1;P1;durP2;ratioP2;P2;SDS_P1;SDS_P2;PMS_P1;PMS_P2;Temp;Humidity;BMP_temperature;BMP_pressure;BME280_temperature;BME280_humidity;BME280_pressure;Samples;Min_cycle;Max_cycle;Signal;HPM_P1;HPM_P2
2022/05/12 00:00:21;;;;;;;5.90;2.03;;;24.70;50.20;;;;;;5023162;28;20514;-45
2022/05/12 00:02:49;;;;;;;2.33;1.60;;;24.60;49.90;;;;;;5022019;28;20538;-46
2022/05/12 00:05:21;;;;;;;2.57;1.60;;;24.70;50.10;;;;;;5033819;28;20534;-46
2022/05/12 00:07:50;;;;;;;2.00;1.50;;;24.70;50.00;;;;;;5041186;28;20453;-46
2022/05/12 00:10:20;;;;;;;2.00;1.47;;;24.70;50.10;;;;;;5042660;28;20624;-45
2022/05/12 00:12:50;;;;;;;3.27;1.30;;;24.70;50.10;;;;;;5030893;28;20812;-46
2022/05/12 00:15:24;;;;;;;2.40;1.87;;;24.60;50.00;;;;;;5034098;28;20442;-47
2022/05/12 00:17:53;;;;;;;2.73;1.40;;;24.70;51.10;;;;;;5023203;28;20845;-47
2022/05/12 00:20:23;;;;;;;1.60;1.20;;;24.60;49.90;;;;;;5030590;28;21365;-48
2022/05/12 00:22:52;;;;;;;1.20;1.10;;;24.70;51.30;;;;;;5023501;28;20450;-47
2022/05/12 00:25:25;;;;;;;1.63;1.33;;;24.60;50.10;;;;;;5026744;28;20433;-47
2022/05/12 00:27:54;;;;;;;2.50;1.50;;;24.60;50.30;;;;;;5040873;28;20524;-47
2022/05/12 00:30:22;;;;;;;2.17;1.80;;;24.60;50.40;;;;;;5046861;28;20469;-45
2022/05/12 00:32:50;;;;;;;2.40;1.53;;;24.60;50.20;;;;;;5045850;28;20873;-47
2022/05/12 00:35:19;;;;;;;1.80;1.57;;;24.60;50.30;;;;;;5043559;28;20937;-46
2022/05/12 00:37:47;;;;;;;1.63;1.27;;;24.60;50.40;;;;;;5045997;28;20447;-47
2022/05/12 00:40:17;;;;;;;2.93;1.70;;;24.60;50.40;;;;;;5098582;22;20561;-49
2022/05/12 00:42:59;;;;;;;1.77;1.30;;;24.60;50.40;;;;;;5005351;28;20444;-46
2022/05/12 00:45:30;;;;;;;2.13;1.40;;;24.60;50.10;;;;;;5005640;28;21001;-49
2022/05/12 00:47:59;;;;;;;1.70;1.60;;;24.60;50.60;;;;;;5005650;28;20522;-49
2022/05/12 00:50:31;;;;;;;1.90;1.80;;;24.60;50.60;;;;;;5018259;28;20475;-49
2022/05/12 00:53:01;;;;;;;2.13;1.53;;;24.60;50.70;;;;;;5004132;28;20523;-48
2022/05/12 00:55:37;;;;;;;2.43;1.70;;;24.60;50.80;;;;;;5004529;28;20441;-49
2022/05/12 00:58:10;;;;;;;2.07;1.87;;;24.60;50.80;;;;;;4988563;28;20532;-49
2022/05/12 01:00:38;;;;;;;2.00;1.80;;;24.60;50.80;;;;;;5006793;28;20522;-48
2022/05/12 01:03:10;;;;;;;2.80;1.47;;;24.60;50.90;;;;;;5005707;28;20444;-48
2022/05/12 01:05:40;;;;;;;1.60;1.37;;;24.60;51.00;;;;;;4989043;28;20554;-48
2022/05/12 01:08:10;;;;;;;1.73;1.50;;;24.60;50.90;;;;;;5005225;28;20486;-48
2022/05/12 01:10:39;;;;;;;1.60;1.50;;;24.60;51.00;;;;;;5006429;28;20434;-49
2022/05/12 01:13:09;;;;;;;1.43;1.33;;;24.60;51.10;;;;;;5003039;28;21008;-49
2022/05/12 01:15:37;;;;;;;2.03;1.27;;;24.60;51.20;;;;;;5005896;28;20509;-48
2022/05/12 01:18:09;;;;;;;1.40;1.17;;;24.60;51.10;;;;;;5005089;28;20514;-48
2022/05/12 01:20:38;;;;;;;2.30;1.37;;;24.60;50.80;;;;;;5004071;28;21010;-49
2022/05/12 01:23:17;;;;;;;2.30;1.63;;;24.60;51.10;;;;;;5005177;28;20472;-46
2022/05/12 01:25:45;;;;;;;4.70;2.00;;;24.60;51.10;;;;;;5005102;28;20467;-48
2022/05/12 01:28:13;;;;;;;1.70;1.60;;;24.60;51.10;;;;;;4990085;28;20470;-48
2022/05/12 01:30:42;;;;;;;2.07;1.87;;;24.60;51.10;;;;;;5005347;28;20442;-48
2022/05/12 01:33:10;;;;;;;1.93;1.73;;;24.60;51.30;;;;;;5005114;28;20458;-48
2022/05/12 01:35:39;;;;;;;1.60;1.50;;;24.60;51.30;;;;;;4990523;28;20873;-48
2022/05/12 01:38:07;;;;;;;1.90;1.70;;;24.60;51.30;;;;;;5004537;28;20998;-49
2022/05/12 01:40:37;;;;;;;1.53;1.43;;;24.60;51.30;;;;;;5005338;28;20459;-49
2022/05/12 01:43:05;;;;;;;4.67;1.50;;;24.50;51.20;;;;;;4998115;28;20837;-49
2022/05/12 01:45:33;;;;;;;1.70;1.43;;;24.50;51.30;;;;;;5004102;28;20440;-49
2022/05/12 01:48:01;;;;;;;2.20;1.20;;;24.60;51.60;;;;;;5004479;28;20539;-48
2022/05/12 01:50:29;;;;;;;1.33;1.23;;;24.50;51.40;;;;;;4997545;28;20468;-49
2022/05/12 01:52:58;;;;;;;1.50;1.40;;;24.50;51.60;;;;;;5003996;28;20435;-49
2022/05/12 01:55:27;;;;;;;1.33;1.20;;;24.50;51.50;;;;;;5004683;28;20450;-49
2022/05/12 01:57:57;;;;;;;2.30;1.60;;;24.50;51.50;;;;;;5000761;28;20547;-49
2022/05/12 02:00:28;;;;;;;1.40;1.30;;;24.50;52.90;;;;;;5005645;28;20534;-49
2022/05/12 02:03:00;;;;;;;1.90;1.40;;;24.50;51.80;;;;;;5008669;28;20480;-48
2022/05/12 02:05:29;;;;;;;2.73;1.50;;;24.50;51.70;;;;;;5006836;28;20444;-48
2022/05/12 02:07:59;;;;;;;1.70;1.60;;;24.50;51.90;;;;;;5002011;28;20478;-49
2022/05/12 02:10:30;;;;;;;1.47;1.37;;;24.50;51.80;;;;;;5011608;28;20514;-49
2022/05/12 02:13:00;;;;;;;2.10;1.90;;;24.50;52.10;;;;;;5003220;28;20448;-48
2022/05/12 02:15:28;;;;;;;1.70;1.60;;;24.50;52.10;;;;;;5010514;28;21131;-48
2022/05/12 02:17:56;;;;;;;2.00;1.70;;;24.50;52.10;;;;;;5010848;28;20439;-48
2022/05/12 02:20:25;;;;;;;2.00;1.63;;;24.50;52.00;;;;;;5007701;28;20454;-48
2022/05/12 02:22:53;;;;;;;1.57;1.47;;;24.50;52.00;;;;;;5000751;28;20416;-49
2022/05/12 02:25:21;;;;;;;1.93;1.83;;;24.50;51.90;;;;;;5010385;28;20435;-49
2022/05/12 02:27:51;;;;;;;2.13;1.80;;;24.50;52.10;;;;;;4994760;28;20474;-49
2022/05/12 02:30:24;;;;;;;1.70;1.60;;;24.50;52.20;;;;;;5011058;28;20518;-49
2022/05/12 02:32:52;;;;;;;1.80;1.70;;;24.50;52.10;;;;;;5010454;28;20435;-48
2022/05/12 02:35:21;;;;;;;3.90;2.03;;;24.50;52.10;;;;;;4996367;28;20455;-48
2022/05/12 02:37:49;;;;;;;1.90;1.60;;;24.50;52.10;;;;;;5008551;28;20438;-48
2022/05/12 02:40:20;;;;;;;2.70;1.87;;;24.50;52.00;;;;;;5010905;28;20462;-49
2022/05/12 02:42:48;;;;;;;2.83;2.40;;;24.50;52.20;;;;;;5004040;28;20440;-49
2022/05/12 02:45:17;;;;;;;1.80;1.70;;;24.40;51.90;;;;;;5009827;28;20482;-49
2022/05/12 02:47:46;;;;;;;1.90;1.73;;;24.40;52.00;;;;;;5010925;28;20435;-48
2022/05/12 02:50:16;;;;;;;2.17;1.97;;;24.40;52.30;;;;;;5010507;28;20839;-49
2022/05/12 02:52:44;;;;;;;1.50;1.40;;;24.40;52.40;;;;;;5009375;28;20794;-48
2022/05/12 02:55:13;;;;;;;2.37;1.63;;;24.40;53.40;;;;;;5009145;28;20481;-49
2022/05/12 02:57:43;;;;;;;2.00;1.80;;;24.40;52.50;;;;;;5003300;28;20473;-48
2022/05/12 03:00:17;;;;;;;1.87;1.43;;;24.40;52.60;;;;;;5010109;28;21013;-48
2022/05/12 03:02:47;;;;;;;1.77;1.67;;;24.40;52.60;;;;;;5003674;28;20462;-48
2022/05/12 03:05:15;;;;;;;2.03;1.30;;;24.40;52.50;;;;;;4999476;28;20916;-48
2022/05/12 03:07:43;;;;;;;1.47;1.37;;;24.40;52.40;;;;;;5000835;28;20518;-48
2022/05/12 03:10:13;;;;;;;1.83;1.40;;;24.40;52.40;;;;;;5004009;28;20476;-48
2022/05/12 03:12:41;;;;;;;1.73;1.47;;;24.40;52.60;;;;;;4996957;28;20875;-48
2022/05/12 03:15:11;;;;;;;1.50;1.33;;;24.40;52.50;;;;;;4995160;28;20518;-47
2022/05/12 03:17:43;;;;;;;1.70;1.53;;;24.40;52.50;;;;;;5004426;28;20828;-48
2022/05/12 03:20:16;;;;;;;3.27;1.50;;;24.40;52.70;;;;;;5001584;28;20482;-48
2022/05/12 03:22:45;;;;;;;1.77;1.67;;;24.40;52.70;;;;;;5004623;28;20432;-48
2022/05/12 03:25:15;;;;;;;1.60;1.50;;;24.40;52.70;;;;;;5002956;28;20923;-48
2022/05/12 03:27:44;;;;;;;1.73;1.30;;;24.30;52.50;;;;;;4988636;28;20470;-48
2022/05/12 03:30:15;;;;;;;1.73;1.63;;;24.30;52.70;;;;;;5004095;28;20566;-48
2022/05/12 03:32:43;;;;;;;1.77;1.60;;;24.30;52.70;;;;;;5003615;28;20432;-48
2022/05/12 03:35:13;;;;;;;1.70;1.50;;;24.30;53.00;;;;;;5002243;28;20513;-48
2022/05/12 03:37:42;;;;;;;1.40;1.30;;;24.30;52.70;;;;;;5001050;28;20868;-48
2022/05/12 03:40:13;;;;;;;2.30;1.50;;;24.30;52.90;;;;;;4994397;28;20479;-47
2022/05/12 03:42:42;;;;;;;1.30;1.20;;;24.30;52.90;;;;;;4996446;28;20537;-48
2022/05/12 03:45:10;;;;;;;1.43;1.30;;;24.30;53.10;;;;;;5002175;28;20666;-48
2022/05/12 03:47:41;;;;;;;1.93;1.60;;;24.30;53.10;;;;;;5004068;28;20557;-48
2022/05/12 03:50:13;;;;;;;1.60;1.50;;;24.30;52.90;;;;;;5000648;28;20477;-48
2022/05/12 03:52:47;;;;;;;1.07;1.07;;;24.30;52.80;;;;;;5001128;28;20488;-48
2022/05/12 03:55:17;;;;;;;1.60;1.27;;;24.30;53.20;;;;;;5001836;28;20466;-48
2022/05/12 03:57:46;;;;;;;1.70;1.60;;;24.30;52.90;;;;;;4988360;28;20959;-48
2022/05/12 04:00:18;;;;;;;1.43;1.13;;;24.30;53.10;;;;;;5003470;28;20475;-49
2022/05/12 04:02:47;;;;;;;2.40;1.30;;;24.30;53.00;;;;;;5003864;28;21049;-48
2022/05/12 04:05:18;;;;;;;2.07;1.57;;;24.30;53.10;;;;;;4997769;28;20485;-48
2022/05/12 04:07:51;;;;;;;1.57;1.40;;;24.30;53.20;;;;;;5007160;28;20445;-48
2022/05/12 04:10:19;;;;;;;1.57;1.40;;;24.20;53.20;;;;;;5007301;28;20524;-48
2022/05/12 04:12:47;;;;;;;1.60;1.50;;;24.30;53.20;;;;;;4992831;28;20462;-49
2022/05/12 04:15:16;;;;;;;1.50;1.40;;;24.20;53.10;;;;;;5006109;28;20527;-48
2022/05/12 04:17:44;;;;;;;1.30;1.20;;;24.30;53.30;;;;;;5007219;28;20845;-49
2022/05/12 04:20:14;;;;;;;1.83;1.40;;;24.20;53.20;;;;;;5006634;28;20604;-48
2022/05/12 04:22:44;;;;;;;2.60;1.87;;;24.20;53.20;;;;;;5006457;28;20533;-48
2022/05/12 04:25:12;;;;;;;1.40;1.30;;;24.20;53.20;;;;;;4997967;28;20498;-49
2022/05/12 04:27:42;;;;;;;1.63;1.40;;;24.20;53.20;;;;;;5006057;28;20473;-48
2022/05/12 04:30:12;;;;;;;2.83;1.70;;;24.20;53.20;;;;;;4999401;28;20853;-48
2022/05/12 04:32:41;;;;;;;2.30;1.30;;;24.20;53.20;;;;;;5007082;28;20433;-48
2022/05/12 04:35:12;;;;;;;2.50;1.63;;;24.20;53.20;;;;;;4994721;28;20490;-48
2022/05/12 04:37:45;;;;;;;1.17;1.10;;;24.20;53.20;;;;;;5007039;28;20888;-48
2022/05/12 04:40:16;;;;;;;1.43;1.33;;;24.20;53.20;;;;;;5006529;28;20478;-48
2022/05/12 04:42:44;;;;;;;2.33;1.90;;;24.20;53.20;;;;;;4999615;28;20452;-48
2022/05/12 04:45:14;;;;;;;1.53;1.43;;;24.10;53.10;;;;;;5005233;28;20756;-48
2022/05/12 04:47:44;;;;;;;1.40;1.30;;;24.10;53.10;;;;;;5007307;28;20459;-48
2022/05/12 04:50:17;;;;;;;1.60;1.30;;;24.20;53.20;;;;;;5001919;28;20477;-49
2022/05/12 04:52:47;;;;;;;1.20;1.03;;;24.20;53.30;;;;;;5006362;28;21009;-49
2022/05/12 04:55:16;;;;;;;2.50;1.63;;;24.20;53.20;;;;;;5005227;28;20878;-48
2022/05/12 04:57:47;;;;;;;1.53;1.43;;;24.10;53.20;;;;;;4997690;28;20444;-48
2022/05/12 05:00:19;;;;;;;2.07;1.70;;;24.10;53.20;;;;;;5006257;28;20579;-48
2022/05/12 05:02:47;;;;;;;1.57;1.47;;;24.10;53.10;;;;;;5006204;28;20513;-49
2022/05/12 05:05:16;;;;;;;1.47;1.37;;;24.10;53.10;;;;;;4995215;28;20482;-48
2022/05/12 05:07:46;;;;;;;1.70;1.60;;;24.10;53.10;;;;;;5006769;28;20430;-48
2022/05/12 05:10:14;;;;;;;1.30;1.20;;;24.10;53.20;;;;;;5005912;28;20564;-48
2022/05/12 05:12:43;;;;;;;1.70;1.50;;;24.10;53.20;;;;;;4999162;28;20999;-48
2022/05/12 05:15:13;;;;;;;1.33;1.20;;;24.10;53.20;;;;;;4989682;28;20521;-48
2022/05/12 05:17:44;;;;;;;2.40;1.70;;;24.10;53.10;;;;;;5005714;28;20457;-48
2022/05/12 05:20:16;;;;;;;1.50;1.40;;;24.10;53.10;;;;;;4993056;28;21052;-48
2022/05/12 05:22:47;;;;;;;1.70;1.60;;;24.10;53.20;;;;;;5003160;28;20491;-49
2022/05/12 05:25:16;;;;;;;2.27;1.60;;;24.10;53.20;;;;;;5004753;28;21073;-49
2022/05/12 05:27:45;;;;;;;1.90;1.80;;;24.10;53.10;;;;;;5005148;28;20496;-49
2022/05/12 05:30:17;;;;;;;1.73;1.63;;;24.10;53.10;;;;;;5006426;28;21015;-49
2022/05/12 05:32:45;;;;;;;2.23;2.03;;;24.10;53.10;;;;;;5005999;28;20488;-48
2022/05/12 05:35:14;;;;;;;1.53;1.43;;;24.10;53.20;;;;;;5003448;28;20504;-49
2022/05/12 05:37:43;;;;;;;2.50;2.03;;;24.20;53.30;;;;;;5006109;28;20454;-49
2022/05/12 05:40:15;;;;;;;2.20;2.00;;;24.10;53.20;;;;;;5006261;28;20483;-48
2022/05/12 05:42:45;;;;;;;2.00;1.90;;;24.10;53.10;;;;;;4990923;28;20957;-48
2022/05/12 05:45:16;;;;;;;1.70;1.60;;;24.10;53.10;;;;;;4997176;28;20826;-48
2022/05/12 05:47:47;;;;;;;1.90;1.80;;;24.10;53.10;;;;;;5005195;28;20480;-48
2022/05/12 05:50:19;;;;;;;2.00;1.90;;;24.10;53.10;;;;;;4994806;28;20479;-48
2022/05/12 05:55:35;;;;;;;4.00;3.60;;;24.10;52.30;;;;;;5004768;28;20453;-49
2022/05/12 05:58:06;;;;;;;3.73;2.97;;;24.00;52.90;;;;;;5003788;28;20478;-48
2022/05/12 06:00:36;;;;;;;3.53;3.00;;;24.00;53.00;;;;;;5006208;28;20449;-48
2022/05/12 06:03:06;;;;;;;3.57;2.83;;;24.00;53.00;;;;;;5005191;28;20521;-48
2022/05/12 06:05:34;;;;;;;3.03;2.73;;;24.00;52.90;;;;;;5001650;28;20450;-48
2022/05/12 06:08:03;;;;;;;2.70;2.50;;;24.00;53.00;;;;;;5006162;28;20529;-48
2022/05/12 06:10:31;;;;;;;3.40;3.10;;;24.00;53.00;;;;;;5006280;28;20449;-48
2022/05/12 06:13:02;;;;;;;2.23;2.03;;;24.00;53.00;;;;;;4989897;28;20474;-48
2022/05/12 06:15:31;;;;;;;2.83;2.10;;;24.00;53.00;;;;;;5003964;28;20872;-48
2022/05/12 06:17:59;;;;;;;2.53;2.33;;;24.00;53.00;;;;;;5005146;28;20455;-48
2022/05/12 06:20:27;;;;;;;2.30;2.07;;;24.00;53.00;;;;;;5005113;28;20451;-48
2022/05/12 06:22:56;;;;;;;2.60;2.37;;;24.00;53.00;;;;;;5004726;28;20433;-48
2022/05/12 06:25:24;;;;;;;2.23;2.13;;;24.00;53.00;;;;;;5003550;28;20954;-48
2022/05/12 06:27:52;;;;;;;2.60;2.00;;;24.00;53.00;;;;;;4997921;28;20931;-48
2022/05/12 06:30:22;;;;;;;2.20;2.00;;;24.00;53.00;;;;;;5005077;28;20518;-48
2022/05/12 06:32:51;;;;;;;3.03;2.77;;;24.00;53.00;;;;;;5007297;28;20565;-48
2022/05/12 06:35:20;;;;;;;3.17;2.70;;;24.00;53.00;;;;;;5001713;28;20821;-48
2022/05/12 06:37:48;;;;;;;3.10;2.20;;;24.00;53.00;;;;;;4994761;28;20428;-48
2022/05/12 06:40:17;;;;;;;3.77;2.50;;;24.00;52.80;;;;;;5004653;28;20498;-48
2022/05/12 06:43:00;;;;;;;4.13;2.03;;;24.00;52.90;;;;;;4998270;28;20863;-46
2022/05/12 06:45:30;;;;;;;2.57;2.00;;;24.00;52.50;;;;;;5004241;28;20425;-48
2022/05/12 06:47:58;;;;;;;2.67;2.47;;;24.00;52.10;;;;;;5002717;28;20438;-48
2022/05/12 06:50:29;;;;;;;3.23;1.80;;;24.00;52.20;;;;;;5003111;28;20483;-47
2022/05/12 06:52:58;;;;;;;2.97;2.77;;;24.00;52.20;;;;;;4995431;28;20489;-46
2022/05/12 06:55:29;;;;;;;2.83;2.63;;;24.00;51.90;;;;;;5002701;28;20513;-48
2022/05/12 06:57:58;;;;;;;3.60;2.17;;;24.00;51.80;;;;;;4997143;28;20460;-46
2022/05/12 07:00:27;;;;;;;3.90;2.10;;;24.00;51.90;;;;;;5003632;28;20440;-47
2022/05/12 07:02:56;;;;;;;2.83;2.43;;;24.00;51.90;;;;;;5003352;28;20435;-48
2022/05/12 07:05:27;;;;;;;3.07;2.60;;;24.00;51.80;;;;;;4982314;28;20982;-47
2022/05/12 07:07:56;;;;;;;4.27;3.10;;;24.00;51.80;;;;;;4984015;28;20425;-48
2022/05/12 07:10:26;;;;;;;3.43;2.80;;;24.00;51.50;;;;;;5004138;28;20541;-46
2022/05/12 07:12:54;;;;;;;2.27;2.17;;;24.00;51.70;;;;;;4997311;28;20469;-48
2022/05/12 07:15:25;;;;;;;3.27;2.60;;;24.00;51.70;;;;;;5001765;28;20462;-47
2022/05/12 07:17:54;;;;;;;4.40;3.23;;;24.00;51.50;;;;;;5003939;28;20469;-46
2022/05/12 07:28:45;;;;;;;2.20;2.00;;;24.10;51.40;;;;;;4999890;28;20458;-46
2022/05/12 07:31:13;;;;;;;3.37;2.73;;;24.10;51.20;;;;;;5004429;28;20481;-45
2022/05/12 07:33:43;;;;;;;2.50;2.30;;;24.10;51.00;;;;;;5003009;28;20472;-47
2022/05/12 07:36:15;;;;;;;2.47;1.63;;;24.10;51.00;;;;;;4992158;28;20562;-47
2022/05/12 07:38:45;;;;;;;2.13;1.93;;;24.10;51.20;;;;;;5001960;28;20988;-48
2022/05/12 07:41:13;;;;;;;4.53;3.73;;;24.10;51.00;;;;;;4999479;28;20504;-47
2022/05/12 07:43:43;;;;;;;4.70;2.37;;;24.10;51.00;;;;;;4998114;28;20475;-48
2022/05/12 07:46:13;;;;;;;2.60;2.20;;;24.10;51.20;;;;;;5000826;28;20868;-48
2022/05/12 07:48:43;;;;;;;2.53;2.00;;;24.10;51.30;;;;;;5002700;28;21146;-48
2022/05/12 07:51:13;;;;;;;1.67;1.57;;;24.10;51.40;;;;;;5001214;28;20530;-47
2022/05/12 07:53:41;;;;;;;1.87;1.77;;;24.10;51.10;;;;;;5003202;28;20993;-46
2022/05/12 07:56:10;;;;;;;2.13;1.70;;;24.10;51.30;;;;;;4998205;28;20457;-46
2022/05/12 07:58:38;;;;;;;1.70;1.60;;;24.10;51.20;;;;;;4990718;28;21704;-46
2022/05/12 08:01:10;;;;;;;1.53;1.43;;;24.10;51.30;;;;;;5002878;28;20812;-46
2022/05/12 08:03:39;;;;;;;1.70;1.60;;;24.10;51.50;;;;;;5001510;28;20466;-47
2022/05/12 08:06:08;;;;;;;1.60;1.50;;;24.10;51.50;;;;;;4986722;28;20466;-47
2022/05/12 08:08:37;;;;;;;3.70;2.10;;;24.10;51.20;;;;;;5001842;28;20512;-46
2022/05/12 08:11:06;;;;;;;1.63;1.53;;;24.10;50.90;;;;;;5002979;28;20435;-48
2022/05/12 08:13:35;;;;;;;1.90;1.63;;;24.10;50.90;;;;;;5002148;28;20885;-47
2022/05/12 08:16:04;;;;;;;1.83;1.70;;;24.10;51.20;;;;;;5002023;28;20467;-47
2022/05/12 08:18:35;;;;;;;1.63;1.53;;;24.10;51.00;;;;;;5002065;28;20777;-48
2022/05/12 08:21:05;;;;;;;1.57;1.47;;;24.10;51.00;;;;;;4991834;28;20470;-46
2022/05/12 08:23:33;;;;;;;1.63;1.53;;;24.10;50.90;;;;;;4998607;28;20880;-48
2022/05/12 08:26:03;;;;;;;1.77;1.67;;;24.10;51.20;;;;;;4999879;28;20461;-47
2022/05/12 08:28:32;;;;;;;2.00;1.80;;;24.10;51.40;;;;;;4989888;28;20465;-46
2022/05/12 08:31:00;;;;;;;2.40;2.20;;;24.10;51.30;;;;;;5002194;28;20462;-48
2022/05/12 08:33:34;;;;;;;2.27;2.07;;;24.10;51.10;;;;;;5002190;28;20481;-46
2022/05/12 08:36:03;;;;;;;1.93;1.77;;;24.10;51.30;;;;;;4999692;28;20467;-48
2022/05/12 08:38:34;;;;;;;1.73;1.50;;;24.00;51.00;;;;;;5002425;28;20838;-49
2022/05/12 08:41:14;;;;;;;1.77;1.67;;;24.10;51.10;;;;;;5000886;28;20441;-47
2022/05/12 08:43:53;;;;;;;2.43;1.67;;;24.10;51.00;;;;;;4998916;28;20461;-49
2022/05/12 08:46:25;;;;;;;4.00;2.00;;;24.10;51.10;;;;;;5002071;28;20454;-48
2022/05/12 08:49:02;;;;;;;5.13;2.50;;;23.90;46.80;;;;;;5000711;28;20588;-48
2022/05/12 08:51:36;;;;;;;4.70;2.17;;;23.80;46.40;;;;;;4998553;28;20437;-47
2022/05/12 08:54:13;;;;;;;2.57;1.87;;;23.70;46.90;;;;;;5004387;28;20469;-47
2022/05/12 08:56:44;;;;;;;2.73;1.90;;;23.70;47.20;;;;;;5000545;28;20546;-47
2022/05/12 08:59:13;;;;;;;2.40;2.17;;;23.70;47.40;;;;;;5003288;28;20571;-46
2022/05/12 09:01:55;;;;;;;2.63;2.43;;;23.80;47.60;;;;;;5007172;28;20443;-46
2022/05/12 09:04:38;;;;;;;3.07;1.80;;;23.80;47.60;;;;;;5005295;28;20511;-48
2022/05/12 09:07:14;;;;;;;3.63;2.10;;;23.80;47.80;;;;;;4990174;28;20969;-48
2022/05/12 09:09:51;;;;;;;2.07;1.87;;;23.80;48.00;;;;;;4997335;28;20476;-45
2022/05/12 09:12:33;;;;;;;1.73;1.63;;;23.80;48.30;;;;;;4993161;28;20441;-48
2022/05/12 09:15:05;;;;;;;2.20;2.00;;;23.90;48.10;;;;;;4991094;28;20469;-46
2022/05/12 09:17:39;;;;;;;1.70;1.60;;;23.90;48.30;;;;;;5006474;28;20496;-46
2022/05/12 09:20:09;;;;;;;2.00;1.60;;;23.90;48.10;;;;;;5004083;28;21117;-48
2022/05/12 09:22:39;;;;;;;2.23;2.03;;;23.90;48.40;;;;;;4987854;28;20454;-48
2022/05/12 09:25:09;;;;;;;3.50;2.00;;;23.90;48.30;;;;;;5001259;28;20475;-46
2022/05/12 09:27:44;;;;;;;1.90;1.70;;;23.90;48.00;;;;;;4999581;28;20465;-47
2022/05/12 09:30:13;;;;;;;3.50;1.90;;;23.90;48.10;;;;;;5005555;28;20828;-48
2022/05/12 09:32:42;;;;;;;1.80;1.70;;;23.90;48.50;;;;;;5005525;28;20485;-47
2022/05/12 09:35:22;;;;;;;3.57;2.00;;;23.90;48.30;;;;;;5001384;28;20520;-46
2022/05/12 09:37:51;;;;;;;2.07;1.63;;;23.90;48.00;;;;;;5004522;28;20440;-48
2022/05/12 09:40:35;;;;;;;2.00;1.90;;;23.90;48.30;;;;;;5004585;28;20498;-45
2022/05/12 09:43:31;;;;;;;2.50;1.90;;;23.90;48.60;;;;;;4997950;28;20516;-45
2022/05/12 09:46:06;;;;;;;1.73;1.63;;;23.90;48.90;;;;;;5003104;28;20491;-48
2022/05/12 09:48:38;;;;;;;1.77;1.67;;;23.80;48.70;;;;;;5003210;28;20779;-47
2022/05/12 09:51:30;;;;;;;2.10;1.90;;;23.80;48.80;;;;;;5000044;28;20750;-47
2022/05/12 09:54:15;;;;;;;2.20;2.00;;;23.80;48.70;;;;;;5003091;28;20534;-47
2022/05/12 09:56:46;;;;;;;3.50;2.37;;;23.80;48.20;;;;;;5000827;28;20462;-47
2022/05/12 09:59:26;;;;;;;1.80;1.60;;;23.80;48.60;;;;;;5003331;28;20473;-49
2022/05/12 10:01:56;;;;;;;2.00;1.43;;;23.80;49.00;;;;;;4991942;28;20987;-47
2022/05/12 10:10:16;;;;;;;2.20;1.53;;;23.90;49.20;;;;;;5005073;28;20509;-44
2022/05/12 10:12:56;;;;;;;1.90;1.80;;;23.80;49.20;;;;;;5002832;28;20972;-47
2022/05/12 10:15:32;;;;;;;2.40;1.53;;;23.80;49.20;;;;;;5003740;28;20498;-47
2022/05/12 10:18:05;;;;;;;2.50;1.77;;;23.80;49.20;;;;;;5004368;28;20439;-47
2022/05/12 10:20:42;;;;;;;1.60;1.50;;;23.80;48.90;;;;;;5003414;28;20449;-46
2022/05/12 10:23:18;;;;;;;3.50;2.37;;;23.80;48.60;;;;;;5019077;28;20443;-47
2022/05/12 10:25:59;;;;;;;1.73;1.63;;;23.80;48.50;;;;;;5003411;28;20458;-46
2022/05/12 10:28:44;;;;;;;1.63;1.53;;;23.80;48.60;;;;;;4998879;28;20464;-48
2022/05/12 10:31:24;;;;;;;3.23;1.77;;;23.80;48.80;;;;;;5004505;28;20934;-48
2022/05/12 10:34:03;;;;;;;1.80;1.70;;;23.80;48.60;;;;;;5004293;28;20836;-46
2022/05/12 10:36:44;;;;;;;1.53;1.40;;;23.80;48.90;;;;;;4997499;28;20565;-47
2022/05/12 10:39:19;;;;;;;3.00;2.00;;;23.80;48.90;;;;;;5003067;28;20467;-45
2022/05/12 10:42:05;;;;;;;2.43;1.73;;;23.80;48.80;;;;;;5002629;28;20483;-47
2022/05/12 10:44:54;;;;;;;1.93;1.83;;;23.80;49.00;;;;;;5003245;28;20477;-47
2022/05/12 10:47:40;;;;;;;3.93;1.90;;;23.90;49.40;;;;;;5001081;28;20461;-46
2022/05/12 10:50:19;;;;;;;2.07;1.80;;;23.90;48.20;;;;;;4997033;28;20480;-47
2022/05/12 10:52:59;;;;;;;1.60;1.50;;;23.80;48.90;;;;;;5000295;28;20439;-48
2022/05/12 10:55:38;;;;;;;1.60;1.50;;;23.80;48.90;;;;;;5001539;28;20454;-48
2022/05/12 10:58:21;;;;;;;2.07;1.67;;;23.80;48.90;;;;;;4994422;28;21100;-47
2022/05/12 11:01:09;;;;;;;1.90;1.70;;;23.80;48.90;;;;;;5004967;28;20434;-48
2022/05/12 11:03:45;;;;;;;1.77;1.67;;;23.80;48.80;;;;;;5002296;28;20483;-47
2022/05/12 11:06:18;;;;;;;1.70;1.60;;;23.80;48.60;;;;;;4985019;28;20498;-46
2022/05/12 11:08:51;;;;;;;1.63;1.50;;;23.80;49.10;;;;;;4984671;28;21034;-48
2022/05/12 11:11:24;;;;;;;1.97;1.73;;;23.90;49.20;;;;;;4984602;28;20449;-46
2022/05/12 11:14:04;;;;;;;2.10;1.73;;;23.80;48.90;;;;;;4989562;28;21007;-48
2022/05/12 11:16:40;;;;;;;2.13;1.90;;;23.80;49.10;;;;;;5003845;28;21030;-47
2022/05/12 11:19:16;;;;;;;1.97;1.77;;;23.80;49.00;;;;;;5002277;28;20506;-47
2022/05/12 11:21:56;;;;;;;1.63;1.53;;;23.80;49.40;;;;;;5005249;28;20425;-47
2022/05/12 11:24:33;;;;;;;1.57;1.47;;;23.80;49.30;;;;;;5002412;28;20475;-47
2022/05/12 11:27:26;;;;;;;1.93;1.83;;;23.90;48.90;;;;;;5002347;28;20467;-48
2022/05/12 11:30:14;;;;;;;2.87;2.00;;;23.80;48.60;;;;;;5004105;28;20472;-45
2022/05/12 11:32:54;;;;;;;1.70;1.47;;;23.80;48.90;;;;;;5004249;28;20480;-47
2022/05/12 11:35:29;;;;;;;1.53;1.43;;;23.80;48.90;;;;;;5001111;28;20481;-48
2022/05/12 11:38:02;;;;;;;2.10;2.00;;;23.80;48.60;;;;;;5004217;28;20425;-48
2022/05/12 11:40:52;;;;;;;2.07;1.97;;;23.90;48.60;;;;;;5003261;28;20875;-46
2022/05/12 11:46:52;;;;;;;2.63;2.00;;;23.90;49.00;;;;;;5002410;28;20448;-47
2022/05/12 11:49:50;;;;;;;3.20;1.77;;;23.90;48.90;;;;;;5003447;28;21088;-47
2022/05/12 11:52:32;;;;;;;1.67;1.57;;;23.90;48.80;;;;;;4999017;28;20449;-47
2022/05/12 11:55:06;;;;;;;2.00;1.80;;;23.90;48.90;;;;;;5001504;28;20844;-45
2022/05/12 11:57:39;;;;;;;1.87;1.67;;;23.90;48.60;;;;;;4995625;28;20976;-47
2022/05/12 12:00:12;;;;;;;1.80;1.70;;;23.80;48.60;;;;;;5001883;28;20501;-47
2022/05/12 12:02:47;;;;;;;2.23;1.80;;;23.80;48.90;;;;;;5002346;28;20458;-48
2022/05/12 12:05:48;;;;;;;2.17;2.00;;;23.80;48.40;;;;;;4995519;28;20536;-48
2022/05/12 12:08:40;;;;;;;1.80;1.70;;;23.90;48.90;;;;;;5002553;28;20525;-46
2022/05/12 12:11:30;;;;;;;2.40;1.50;;;23.80;48.10;;;;;;4999376;28;20426;-46
2022/05/12 12:14:00;;;;;;;1.90;1.80;;;23.90;48.40;;;;;;5001873;28;21027;-47
2022/05/12 12:16:51;;;;;;;2.17;2.00;;;23.90;47.50;;;;;;5004094;28;20450;-48
2022/05/12 12:19:43;;;;;;;1.83;1.53;;;23.90;48.10;;;;;;5001342;28;20480;-47
2022/05/12 12:22:20;;;;;;;1.90;1.80;;;23.90;48.60;;;;;;5002799;28;20436;-47
2022/05/12 12:25:18;;;;;;;2.80;1.77;;;23.90;48.30;;;;;;5004831;28;20468;-47
2022/05/12 12:28:09;;;;;;;1.93;1.83;;;23.90;48.40;;;;;;5004988;28;20485;-46
2022/05/12 12:31:01;;;;;;;2.93;2.37;;;23.90;48.40;;;;;;5006548;28;20824;-47
2022/05/12 12:33:41;;;;;;;2.70;2.00;;;23.90;48.50;;;;;;5005903;28;20572;-49
2022/05/12 12:36:54;;;;;;;2.07;1.90;;;23.90;48.60;;;;;;5001508;28;20852;-48
2022/05/12 12:39:42;;;;;;;1.70;1.60;;;23.90;48.00;;;;;;5005745;28;21417;-47
2022/05/12 12:42:29;;;;;;;2.00;1.70;;;23.90;48.40;;;;;;4996574;28;20965;-52
2022/05/12 12:45:00;;;;;;;2.40;1.60;;;23.90;48.60;;;;;;4998720;28;21004;-46
2022/05/12 12:47:41;;;;;;;2.17;1.97;;;23.90;48.60;;;;;;5006641;28;20465;-47
2022/05/12 12:50:27;;;;;;;2.27;1.90;;;23.90;48.60;;;;;;5003927;28;20476;-47
2022/05/12 12:52:56;;;;;;;2.03;1.77;;;23.90;48.40;;;;;;5006340;28;20985;-45
2022/05/12 12:58:26;;;;;;;1.57;1.47;;;23.90;47.80;;;;;;4998736;28;20440;-46
2022/05/12 13:00:58;;;;;;;2.07;1.87;;;23.90;48.20;;;;;;5006334;28;20471;-47
2022/05/12 13:03:30;;;;;;;2.00;1.90;;;23.90;48.60;;;;;;5005291;28;20480;-48
2022/05/12 13:06:08;;;;;;;2.03;1.80;;;23.90;48.30;;;;;;5007938;28;20832;-47
2022/05/12 13:08:36;;;;;;;2.50;1.67;;;23.90;48.40;;;;;;5004909;28;20464;-46
2022/05/12 13:11:07;;;;;;;1.83;1.73;;;23.90;48.00;;;;;;5003383;28;20449;-46
2022/05/12 13:13:50;;;;;;;1.80;1.70;;;23.90;48.10;;;;;;5002238;28;20836;-47
2022/05/12 13:16:21;;;;;;;1.67;1.57;;;23.90;48.90;;;;;;5006268;28;20532;-54
2022/05/12 13:18:52;;;;;;;3.37;2.13;;;23.90;48.60;;;;;;5005617;28;20476;-46
2022/05/12 13:21:24;;;;;;;1.67;1.57;;;23.90;48.30;;;;;;4991365;28;20454;-46
2022/05/12 13:24:06;;;;;;;2.60;2.03;;;23.90;48.60;;;;;;4987083;28;20822;-46
2022/05/12 13:26:36;;;;;;;2.10;1.90;;;23.90;48.10;;;;;;4988212;28;20465;-47
2022/05/12 13:29:08;;;;;;;2.33;2.10;;;23.90;48.30;;;;;;4994612;28;20471;-47
2022/05/12 13:31:42;;;;;;;1.70;1.60;;;24.00;48.40;;;;;;5007291;28;20545;-48
2022/05/12 13:34:25;;;;;;;1.87;1.60;;;24.00;48.30;;;;;;5032197;28;20943;-48
2022/05/12 13:36:55;;;;;;;1.50;1.40;;;24.00;48.30;;;;;;4994587;28;20464;-48
2022/05/12 13:39:49;;;;;;;1.90;1.70;;;24.00;49.00;;;;;;5004720;28;20515;-48